ADDS METAR Data INFO
IDs: Format: Raw Decoded Include TAF

Data at: 0101 UTC 24 Jun 2018

PADL 240056Z 19008KT 10SM FEW050 SCT060 BKN075 16/04 A3009 RMK AO2 SLP194 T01610044
PADL 232356Z 18009KT 10SM FEW050 15/06 A3009 RMK AO2 SLP196 T01500056 10156 20100 58008
PADL 232256Z 17008KT 10SM SCT050 OVC080 14/06 A3010 RMK AO2 SLP200 T01390056
PADL 232156Z 19009KT 10SM SCT065 OVC080 14/06 A3011 RMK AO2 SLP202 T01390056
PADL 232056Z 00000KT 10SM BKN055 OVC085 13/04 A3012 RMK AO2 SLP205 T01280039 58004
PADL 231956Z 00000KT 10SM BKN055 OVC085 12/04 A3013 RMK AO2 SLP208 T01220044
PADL 231856Z 00000KT 10SM BKN065 OVC085 11/06 A3013 RMK AO2 SLP210 T01060056
PADL 231756Z COR VRB03KT 10SM BKN065 OVC085 11/06 A3013 RMK AO2 SLP209 T01060056 10106 20050 50001
PADL 231556Z AUTO 00000KT 10SM OVC080 07/05 A3013 RMK AO2 SLP210 T00720050
PADL 231456Z AUTO 00000KT 10SM OVC080 06/04 A3013 RMK AO2 SLP208 T00610044 53000
PADL 231356Z AUTO 00000KT 10SM OVC075 06/04 A3012 RMK AO2 SLP207 T00610044
PADL 231156Z AUTO 00000KT 10SM OVC075 06/04 A3013 RMK AO2 SLP207 70003 T00560039 10117 20050 53004
PADL 231056Z AUTO 00000KT 10SM SCT075 06/04 A3012 RMK AO2 SLP206 T00560039
PADL 230956Z AUTO 00000KT 10SM CLR 05/04 A3012 RMK AO2 SLP206 T00500039
PADL 230856Z AUTO 00000KT 10SM CLR 07/05 A3012 RMK AO2 SLP204 T00670050 401390061 53009
PADL 230756Z AUTO 00000KT 10SM CLR 08/05 A3011 RMK AO2 SLP202 T00830050
PADL 230656Z AUTO VRB03KT 10SM CLR 10/04 A3009 RMK AO2 SLP196 T01000044
PADL 230556Z AUTO VRB04KT 10SM CLR 12/03 A3009 RMK AO2 SLP195 T01170028 10139 20117 53004
PADL 230456Z 21009G13KT 10SM CLR 13/03 A3008 RMK AO2 SLP193 T01280033
PADL 230356Z 19006G17KT 10SM CLR 13/04 A3008 RMK AO2 SLP192 T01330044
PADL 230256Z 19010G16KT 10SM SCT040 13/06 A3008 RMK AO2 SLP190 T01330056 50003
PADL 230156Z 18011KT 10SM SCT044 13/06 A3008 RMK AO2 SLP192 T01330061
PADL 230056Z 17011KT 10SM FEW034 SCT042 12/06 A3008 RMK AO2 SLP191 T01220056
PADL 222356Z 18013KT 10SM OVC048 12/06 A3007 RMK AO2 SLP187 60001 T01220061 10128 20094 51007
PADL 222256Z 19011KT 10SM BKN046 13/06 A3007 RMK AO2 SLP187 T01280061
PADL 222156Z 20007G14KT 10SM FEW026 BKN032 OVC041 13/07 A3006 RMK AO2 SLP185 P0001 T01280067
PADL 222148Z VRB05KT 10SM SCT026 BKN032 OVC041 12/06 A3006 RMK AO2
PADL 222056Z 20007KT 10SM SCT015 OVC020 12/07 A3005 RMK AO2 RAE09 SLP181 P0000 60000 T01170067 51009
PADL 221956Z 18005KT 10SM -RA BKN015 OVC035 09/08 A3004 RMK AO2 RAB52 SLP179 P0000 T00940078
PADL 221856Z 18008KT 10SM BKN013 OVC080 11/07 A3003 RMK AO2 SLP174 T01060072
PADL 221656Z 00000KT 10SM FEW012 OVC020 09/07 A3000 RMK AO2 SLP166 T00890072
PADL 221556Z 00000KT 10SM FEW023 BKN030 OVC034 08/07 A2999 RMK AO2 SLP162 T00830072
PADL 221456Z AUTO 00000KT 10SM OVC034 08/07 A2998 RMK AO2 RAB04E23 SLP157 P0000 60001 T00830072 51012
PADL 221356Z AUTO 00000KT 9SM SCT032 BKN039 OVC055 08/07 A2997 RMK AO2 SLP154 P0001 T00830072